createdAt,value
2022-10-23T00:01:46.287Z,9.13
2022-10-23T00:04:19.989Z,9.25
2022-10-23T00:06:50.088Z,9.26
2022-10-23T00:09:22.616Z,9.25
2022-10-23T00:11:51.868Z,9.26
2022-10-23T00:14:23.623Z,9.26
2022-10-23T00:16:52.464Z,9.28
2022-10-23T00:19:20.699Z,9.21
2022-10-23T00:21:48.640Z,9.30
2022-10-23T00:24:16.906Z,9.34
2022-10-23T00:26:44.894Z,9.36
2022-10-23T00:29:13.235Z,9.35
2022-10-23T00:31:41.420Z,9.37
2022-10-23T00:34:10.124Z,9.40
2022-10-23T00:36:38.264Z,9.35
2022-10-23T00:39:11.076Z,9.40
2022-10-23T00:41:38.971Z,9.43
2022-10-23T00:44:11.075Z,9.45
2022-10-23T00:46:40.401Z,9.45
2022-10-23T00:49:10.184Z,9.41
2022-10-23T00:51:48.788Z,9.22
2022-10-23T00:54:24.752Z,9.47
2022-10-23T00:57:00.678Z,9.48
2022-10-23T00:59:30.367Z,9.47
2022-10-23T01:02:01.362Z,9.47
2022-10-23T01:04:31.835Z,9.49
2022-10-23T01:07:21.168Z,9.34
2022-10-23T01:09:55.040Z,9.51
2022-10-23T01:12:52.642Z,9.53
2022-10-23T01:15:28.642Z,9.58
2022-10-23T01:17:58.136Z,9.56
2022-10-23T01:20:41.816Z,9.60
2022-10-23T01:23:31.192Z,9.66
2022-10-23T01:26:33.239Z,9.69
2022-10-23T01:29:21.743Z,9.69
2022-10-23T01:32:04.384Z,9.72
2022-10-23T01:34:55.252Z,9.75
2022-10-23T01:37:45.126Z,9.75
2022-10-23T01:40:39.060Z,9.74
2022-10-23T01:43:14.054Z,9.72
2022-10-23T01:45:46.957Z,9.73
2022-10-23T01:48:19.346Z,9.76
2022-10-23T01:50:49.865Z,9.74
2022-10-23T01:53:20.097Z,9.80
2022-10-23T01:55:49.571Z,9.90
2022-10-23T01:58:23.742Z,9.90
2022-10-23T02:00:53.652Z,9.87
2022-10-23T02:03:22.335Z,9.93
2022-10-23T02:05:53.910Z,9.88
2022-10-23T02:08:21.917Z,9.90
2022-10-23T02:11:11.206Z,9.85
2022-10-23T06:09:39.006Z,7.12
2022-10-23T06:12:07.330Z,7.14
2022-10-23T06:14:35.362Z,7.12
2022-10-23T06:17:03.559Z,7.09
2022-10-23T06:19:31.718Z,7.08
2022-10-23T06:21:59.643Z,7.08
2022-10-23T06:24:27.788Z,7.17
2022-10-23T06:26:55.793Z,7.18
2022-10-23T06:29:23.795Z,7.13
2022-10-23T06:31:55.130Z,7.18
2022-10-23T06:34:23.124Z,7.18
2022-10-23T06:36:50.989Z,7.09
2022-10-23T06:39:19.205Z,7.03
2022-10-23T06:41:47.154Z,7.11
2022-10-23T06:44:15.062Z,7.09
2022-10-23T06:46:44.674Z,7.08
2022-10-23T06:49:12.575Z,7.04
2022-10-23T06:51:40.600Z,7.02
2022-10-23T06:54:09.673Z,7.01
2022-10-23T06:56:38.645Z,7.01
2022-10-23T06:59:08.381Z,6.95
2022-10-23T07:01:38.856Z,6.99
2022-10-23T07:04:06.963Z,6.86
2022-10-23T07:06:34.988Z,6.69
2022-10-23T07:09:04.626Z,6.29
2022-10-23T07:11:32.585Z,5.91
2022-10-23T07:14:01.898Z,5.59
2022-10-23T07:16:32.518Z,5.22
2022-10-23T07:19:01.820Z,4.82
2022-10-23T07:21:32.650Z,4.27
2022-10-23T07:24:01.508Z,3.90
2022-10-23T07:26:29.762Z,3.69
2022-10-23T07:28:57.747Z,3.51
2022-10-23T07:31:28.340Z,3.23
2022-10-23T07:33:56.670Z,3.04
2022-10-23T07:36:24.751Z,2.98
2022-10-23T07:38:53.047Z,2.96
2022-10-23T07:41:21.105Z,2.99
2022-10-23T07:43:49.004Z,2.85
2022-10-23T07:46:17.047Z,2.88
2022-10-23T07:48:45.084Z,2.70
2022-10-23T07:51:15.490Z,2.68
2022-10-23T07:53:46.633Z,2.55
2022-10-23T07:56:23.263Z,2.65
2022-10-23T07:58:57.306Z,2.59
2022-10-23T08:01:43.338Z,2.59
2022-10-23T08:04:13.071Z,2.52
2022-10-23T08:06:41.032Z,2.46
2022-10-23T08:09:09.033Z,2.48
2022-10-23T08:11:38.722Z,2.40
2022-10-23T08:14:08.861Z,2.34
2022-10-23T08:16:38.979Z,2.07
2022-10-23T08:19:08.595Z,2.29
2022-10-23T08:21:36.693Z,2.21
2022-10-23T08:24:05.272Z,2.15
2022-10-23T08:26:34.136Z,2.10
2022-10-23T08:29:02.290Z,2.11
2022-10-23T08:31:30.338Z,2.02
2022-10-23T08:33:58.523Z,2.01
2022-10-23T08:36:28.570Z,2.10
2022-10-23T08:38:58.697Z,2.07
2022-10-23T08:41:32.666Z,2.09
2022-10-23T08:44:14.464Z,2.09
2022-10-23T08:46:47.828Z,2.11
2022-10-23T08:49:46.074Z,1.97
2022-10-23T08:52:26.069Z,1.85
2022-10-23T08:55:23.392Z,1.69
2022-10-23T08:58:16.344Z,1.32
2022-10-23T09:00:45.675Z,1.27
2022-10-23T09:03:14.794Z,1.19
2022-10-23T09:06:10.421Z,1.15
2022-10-23T09:08:53.358Z,1.12
2022-10-23T09:11:26.602Z,1.10
2022-10-23T09:14:15.247Z,1.10
2022-10-23T09:17:08.831Z,1.11
2022-10-23T09:19:36.907Z,1.11
2022-10-23T09:22:06.853Z,1.13
2022-10-23T09:24:36.054Z,1.13
2022-10-23T09:29:36.563Z,1.17
2022-10-23T09:32:09.208Z,1.18
2022-10-23T09:34:37.159Z,1.14
2022-10-23T09:37:26.641Z,1.18
2022-10-23T09:40:23.223Z,1.18
2022-10-23T09:43:00.409Z,1.11
2022-10-23T09:45:32.703Z,1.07
2022-10-23T09:48:16.655Z,1.05
2022-10-23T09:50:51.111Z,1.04
2022-10-23T09:53:34.290Z,1.01
2022-10-23T09:56:16.224Z,0.95
2022-10-23T09:59:00.212Z,0.87
2022-10-23T10:01:36.807Z,0.83
2022-10-23T10:04:05.038Z,0.48
2022-10-23T10:06:34.571Z,0.71
2022-10-23T10:09:15.456Z,0.71
2022-10-23T10:11:53.350Z,0.66
2022-10-23T10:14:39.998Z,0.61
2022-10-23T10:20:40.299Z,0.55
2022-10-23T10:23:43.468Z,0.50
2022-10-23T10:26:15.284Z,0.44
2022-10-23T10:29:04.130Z,0.38
2022-10-23T10:31:56.406Z,0.30
2022-10-23T10:34:44.090Z,0.27
2022-10-23T10:37:53.391Z,0.15
2022-10-23T10:40:28.689Z,0.16
2022-10-23T10:43:14.963Z,0.15
2022-10-23T10:46:09.073Z,0.17
2022-10-23T10:48:55.446Z,0.16
2022-10-23T10:51:30.992Z,0.16
2022-10-23T10:54:18.639Z,0.17
2022-10-23T10:56:49.306Z,0.16
2022-10-23T10:59:33.278Z,0.07
2022-10-23T11:02:15.420Z,0.13
2022-10-23T11:05:06.443Z,0.12
2022-10-23T11:07:44.149Z,0.10
2022-10-23T11:10:22.159Z,0.11
2022-10-23T11:12:50.808Z,0.10
2022-10-23T11:15:33.509Z,0.11
2022-10-23T11:18:06.920Z,0.14
2022-10-23T11:21:12.058Z,0.14
2022-10-23T11:27:04.022Z,0.13
2022-10-23T11:29:35.083Z,0.12
2022-10-23T11:32:12.261Z,0.11
2022-10-23T11:34:58.318Z,0.13
2022-10-23T11:37:28.543Z,0.13
2022-10-23T11:40:05.321Z,0.08
2022-10-23T11:42:43.335Z,0.07
2022-10-23T11:45:36.574Z,0.06
2022-10-23T11:48:20.210Z,0.08
2022-10-23T11:50:48.091Z,0.10
2022-10-23T11:53:34.944Z,0.12
2022-10-23T11:56:15.258Z,0.13
2022-10-23T11:58:49.343Z,0.14
2022-10-23T12:01:43.348Z,0.14
2022-10-23T12:04:14.285Z,0.15
2022-10-23T12:06:50.543Z,0.15
2022-10-23T12:09:43.563Z,0.16
2022-10-23T12:12:11.488Z,0.20
2022-10-23T12:14:47.927Z,0.21
2022-10-23T12:17:27.285Z,0.23
2022-10-23T12:20:21.591Z,0.24
2022-10-23T12:23:01.614Z,0.26
2022-10-23T12:25:47.972Z,0.28
2022-10-23T12:28:37.768Z,0.29
2022-10-23T12:31:47.820Z,0.29
2022-10-23T12:34:42.881Z,0.32
2022-10-23T12:37:37.148Z,0.33
2022-10-23T12:40:10.298Z,0.36
2022-10-23T12:42:39.168Z,0.35
2022-10-23T12:45:17.168Z,0.35
2022-10-23T12:47:50.969Z,0.29
2022-10-23T12:50:26.139Z,0.34
2022-10-23T12:53:04.807Z,0.30
2022-10-23T12:55:49.731Z,0.31
2022-10-23T12:58:28.501Z,0.26
2022-10-23T13:01:00.547Z,0.35
2022-10-23T13:03:31.430Z,0.29
2022-10-23T13:06:04.388Z,0.29
2022-10-23T13:08:41.214Z,0.34
2022-10-23T13:11:15.504Z,0.28
2022-10-23T13:13:43.696Z,0.35
2022-10-23T13:16:23.415Z,0.35
2022-10-23T13:18:51.819Z,0.34
2022-10-23T13:21:25.302Z,0.34
2022-10-23T13:23:57.154Z,0.29
2022-10-23T13:26:35.349Z,0.35
2022-10-23T13:29:09.603Z,0.36
2022-10-23T13:31:37.893Z,0.36
2022-10-23T13:34:15.792Z,0.32
2022-10-23T13:37:12.602Z,0.37
2022-10-23T13:39:40.547Z,0.39
2022-10-23T13:42:16.115Z,0.40
2022-10-23T13:44:45.739Z,0.41
2022-10-23T13:47:14.192Z,0.42
2022-10-23T13:49:42.248Z,0.40
2022-10-23T13:52:15.354Z,0.40
2022-10-23T13:54:44.404Z,0.39
2022-10-23T13:57:16.581Z,0.35
2022-10-23T13:59:45.740Z,0.38
2022-10-23T14:02:22.566Z,0.38
2022-10-23T14:04:52.009Z,0.35
2022-10-23T14:07:20.113Z,0.41
2022-10-23T14:09:50.520Z,0.42
2022-10-23T14:12:18.936Z,0.44
2022-10-23T14:14:52.469Z,0.43
2022-10-23T14:17:22.015Z,0.43
2022-10-23T14:19:51.869Z,0.43
2022-10-23T14:22:22.873Z,0.42
2022-10-23T14:24:51.055Z,0.42
2022-10-23T14:27:19.213Z,0.41
2022-10-23T14:29:47.210Z,0.39
2022-10-23T14:32:15.207Z,0.41
2022-10-23T14:34:45.186Z,0.39
2022-10-23T14:37:13.282Z,0.35
2022-10-23T14:39:41.198Z,0.42
2022-10-23T14:42:10.046Z,0.40
2022-10-23T14:47:27.098Z,0.39
2022-10-23T14:49:55.333Z,0.41
2022-10-23T14:52:24.219Z,0.41
2022-10-23T14:54:56.585Z,0.42
2022-10-23T14:57:24.549Z,0.40
2022-10-23T14:59:52.638Z,0.39
2022-10-23T15:02:22.659Z,0.34
2022-10-23T15:04:50.690Z,0.38
2022-10-23T15:07:18.673Z,0.31
2022-10-23T15:09:48.379Z,0.38
2022-10-23T15:12:16.131Z,0.38
2022-10-23T15:14:44.035Z,0.37
2022-10-23T15:17:15.771Z,0.37
2022-10-23T15:19:43.890Z,0.37
2022-10-23T15:22:11.947Z,0.37
2022-10-23T15:24:43.320Z,0.39
2022-10-23T15:27:11.664Z,0.40
2022-10-23T15:29:39.636Z,0.38
2022-10-23T15:32:09.480Z,0.32
2022-10-23T15:34:38.359Z,0.24
2022-10-23T15:37:06.605Z,0.32
2022-10-23T15:39:36.381Z,0.36
2022-10-23T15:42:07.032Z,0.37
2022-10-23T15:44:35.377Z,0.33
2022-10-23T15:47:03.867Z,0.27
2022-10-23T15:49:32.064Z,0.32
2022-10-23T15:52:00.254Z,0.32
2022-10-23T15:54:32.883Z,0.32
2022-10-23T15:57:02.392Z,0.33
2022-10-23T15:59:31.966Z,0.34
2022-10-23T16:02:00.852Z,0.37
2022-10-23T16:04:29.273Z,0.36
2022-10-23T16:06:57.331Z,0.37
2022-10-23T16:09:25.567Z,0.37
2022-10-23T16:11:53.628Z,0.39
2022-10-23T16:14:21.649Z,0.38
2022-10-23T16:16:50.702Z,0.41
2022-10-23T16:19:19.465Z,0.41
2022-10-23T16:21:47.484Z,0.41
2022-10-23T16:24:16.537Z,0.37
2022-10-23T16:26:50.810Z,0.38
2022-10-23T16:29:19.677Z,0.38
2022-10-23T16:31:47.741Z,0.35
2022-10-23T16:34:15.798Z,0.35
2022-10-23T16:36:44.891Z,0.39
2022-10-23T16:39:14.501Z,0.34
2022-10-23T16:41:42.451Z,0.40
2022-10-23T16:44:10.597Z,0.40
2022-10-23T16:46:40.221Z,0.35
2022-10-23T16:49:09.452Z,0.40
2022-10-23T16:51:38.684Z,0.40
2022-10-23T16:54:07.230Z,0.32
2022-10-23T16:56:35.238Z,0.39
2022-10-23T16:59:03.744Z,0.33
2022-10-23T17:01:33.715Z,0.39
2022-10-23T17:04:01.869Z,0.41
2022-10-23T17:06:33.092Z,0.43
2022-10-23T17:09:02.476Z,0.43
2022-10-23T17:11:33.640Z,0.40
2022-10-23T17:14:07.595Z,0.42
2022-10-23T17:16:39.940Z,0.42
2022-10-23T17:19:20.972Z,0.43
2022-10-23T17:21:57.199Z,0.41
2022-10-23T17:24:25.829Z,0.41
2022-10-23T17:26:55.578Z,0.34
2022-10-23T17:29:25.659Z,0.41
2022-10-23T17:31:53.668Z,0.43
2022-10-23T17:34:23.792Z,0.42
2022-10-23T17:36:55.238Z,0.43
2022-10-23T17:39:28.235Z,0.43
2022-10-23T17:41:57.432Z,0.44
2022-10-23T17:44:25.709Z,0.43
2022-10-23T17:46:55.312Z,0.43
2022-10-23T17:49:24.557Z,0.43
2022-10-23T17:51:58.150Z,0.42
2022-10-23T17:54:27.930Z,0.42
2022-10-23T17:56:56.477Z,0.42
2022-10-23T17:59:24.816Z,0.42
2022-10-23T18:01:52.893Z,0.44
2022-10-23T18:04:22.747Z,0.44
2022-10-23T18:06:53.415Z,0.42
2022-10-23T18:09:23.030Z,0.42
2022-10-23T18:11:50.774Z,0.44
2022-10-23T18:14:21.185Z,0.43
2022-10-23T18:16:49.836Z,0.39
2022-10-23T18:19:19.257Z,0.40
2022-10-23T18:21:50.341Z,0.39
2022-10-23T18:24:19.468Z,0.36
2022-10-23T18:26:50.921Z,0.37
2022-10-23T18:29:19.503Z,0.38
2022-10-23T18:31:51.245Z,0.39
2022-10-23T18:34:22.709Z,0.40
2022-10-23T18:36:54.484Z,0.41
2022-10-23T18:39:25.718Z,0.36
2022-10-23T18:41:57.048Z,0.41
2022-10-23T18:44:30.644Z,0.42
2022-10-23T18:47:01.053Z,0.42
2022-10-23T18:49:29.819Z,0.44
2022-10-23T18:51:59.156Z,0.46
2022-10-23T18:54:27.224Z,0.49
2022-10-23T18:56:55.420Z,0.51
2022-10-23T18:59:24.407Z,0.32
2022-10-23T19:01:52.717Z,0.49
2022-10-23T19:04:21.083Z,0.50
2022-10-23T19:06:50.959Z,0.48
2022-10-23T19:09:19.935Z,0.51
2022-10-23T19:11:48.151Z,0.52
2022-10-23T19:14:16.351Z,0.50
2022-10-23T19:16:53.303Z,0.49
2022-10-23T19:19:26.310Z,0.54
2022-10-23T19:21:55.777Z,0.33
2022-10-23T19:24:41.132Z,0.56
2022-10-23T19:27:09.554Z,0.57
2022-10-23T19:29:41.734Z,0.58
2022-10-23T19:32:11.663Z,0.55
2022-10-23T19:34:40.242Z,0.56
2022-10-23T19:37:08.320Z,0.59
2022-10-23T19:39:38.581Z,0.59
2022-10-23T19:42:09.150Z,0.60
2022-10-23T19:44:37.107Z,0.60
2022-10-23T19:47:06.693Z,0.61
2022-10-23T19:49:34.581Z,0.59
2022-10-23T19:52:02.640Z,0.59
2022-10-23T19:54:30.806Z,0.59
2022-10-23T19:56:59.017Z,0.49
2022-10-23T19:59:27.043Z,0.48
2022-10-23T20:01:55.355Z,0.51
2022-10-23T20:04:23.448Z,0.50
2022-10-23T20:06:52.959Z,0.51
2022-10-23T20:09:22.440Z,0.48
2022-10-23T20:11:50.405Z,0.52
2022-10-23T20:14:20.542Z,0.48
2022-10-23T20:16:55.854Z,0.47
2022-10-23T20:19:24.510Z,0.57
2022-10-23T20:21:52.691Z,0.55
2022-10-23T20:24:22.714Z,0.54
2022-10-23T20:26:53.557Z,0.53
2022-10-23T20:29:23.212Z,0.53
2022-10-23T20:31:52.248Z,0.54
2022-10-23T20:34:20.358Z,0.53
2022-10-23T20:36:50.020Z,0.51
2022-10-23T20:39:26.424Z,0.51
2022-10-23T20:41:56.068Z,0.46
2022-10-23T20:44:24.242Z,0.50
2022-10-23T20:46:53.169Z,0.48
2022-10-23T20:49:21.594Z,0.45
2022-10-23T20:51:56.044Z,0.45
2022-10-23T20:54:27.395Z,0.45
2022-10-23T20:56:57.765Z,0.39
2022-10-23T20:59:26.318Z,0.46
2022-10-23T21:01:56.728Z,0.46
2022-10-23T21:04:28.287Z,0.44
2022-10-23T21:07:14.373Z,0.43
2022-10-23T21:09:43.385Z,0.43
2022-10-23T21:12:11.465Z,0.41
2022-10-23T21:14:40.217Z,0.41
2022-10-23T21:17:09.405Z,0.41
2022-10-23T21:19:39.451Z,0.41
2022-10-23T21:22:07.461Z,0.40
2022-10-23T21:24:35.412Z,0.40
2022-10-23T21:27:03.620Z,0.34
2022-10-23T21:29:31.603Z,0.33
2022-10-23T21:32:03.998Z,0.37
2022-10-23T21:34:33.730Z,0.29
2022-10-23T21:37:18.122Z,0.35
2022-10-23T21:39:48.767Z,0.32
2022-10-23T21:42:16.764Z,0.37
2022-10-23T21:44:44.807Z,0.39
2022-10-23T21:47:12.818Z,0.40
2022-10-23T21:49:40.800Z,0.40
2022-10-23T21:52:08.717Z,0.37
2022-10-23T21:54:37.683Z,0.39
2022-10-23T21:57:05.645Z,0.35
2022-10-23T21:59:35.950Z,0.42
2022-10-23T22:02:05.544Z,0.38
2022-10-23T22:04:33.694Z,0.40
2022-10-23T22:07:03.604Z,0.45
2022-10-23T22:09:34.665Z,0.43
2022-10-23T22:12:02.824Z,0.41
2022-10-23T22:14:31.019Z,0.41
2022-10-23T22:17:00.864Z,0.42
2022-10-23T22:19:29.157Z,0.39
2022-10-23T22:21:57.175Z,0.43
2022-10-23T22:24:26.029Z,0.43
2022-10-23T22:26:57.223Z,0.40
2022-10-23T22:29:30.729Z,0.46
2022-10-23T22:31:59.145Z,0.47
2022-10-23T22:37:19.558Z,0.41
2022-10-23T22:39:47.181Z,0.49
2022-10-23T22:42:15.194Z,0.48
2022-10-23T22:44:43.334Z,0.48
2022-10-23T22:47:11.390Z,0.49
2022-10-23T22:49:40.048Z,0.50
2022-10-23T22:52:08.132Z,0.51
2022-10-23T22:54:36.167Z,0.50
2022-10-23T22:57:04.192Z,0.53
2022-10-23T22:59:32.455Z,0.52
2022-10-23T23:02:00.389Z,0.52
2022-10-23T23:04:43.551Z,0.52
2022-10-23T23:07:18.671Z,0.45
2022-10-23T23:09:46.848Z,0.47
2022-10-23T23:12:15.360Z,0.50
2022-10-23T23:14:43.934Z,0.50
2022-10-23T23:17:12.681Z,0.49
2022-10-23T23:19:40.652Z,0.49
2022-10-23T23:22:10.495Z,0.49
2022-10-23T23:24:39.921Z,0.50
2022-10-23T23:27:07.970Z,0.48
2022-10-23T23:29:36.076Z,0.45
2022-10-23T23:32:06.589Z,0.42
2022-10-23T23:34:34.635Z,0.41
2022-10-23T23:37:02.817Z,0.39
2022-10-23T23:39:30.708Z,0.37
2022-10-23T23:41:58.732Z,0.41
2022-10-23T23:44:27.782Z,0.41
2022-10-23T23:46:56.511Z,0.39
2022-10-23T23:49:24.691Z,0.31
2022-10-23T23:51:54.035Z,0.38
2022-10-23T23:54:21.922Z,0.38
2022-10-23T23:56:49.875Z,0.38
2022-10-23T23:59:17.975Z,0.40
